createdAt,value
2023-04-15T00:01:12.139Z,0.38
2023-04-15T00:03:39.867Z,0.37
2023-04-15T00:06:07.160Z,0.35
2023-04-15T00:08:34.602Z,0.32
2023-04-15T00:11:08.018Z,0.30
2023-04-15T00:13:35.098Z,0.28
2023-04-15T00:16:02.880Z,0.26
2023-04-15T00:18:30.170Z,0.23
2023-04-15T00:20:57.246Z,0.21
2023-04-15T00:23:24.260Z,0.19
2023-04-15T00:25:51.270Z,0.17
2023-04-15T00:28:19.048Z,0.17
2023-04-15T00:30:46.564Z,0.14
2023-04-15T00:33:14.257Z,0.12
2023-04-15T00:35:41.769Z,0.10
2023-04-15T00:38:08.855Z,-0.01
2023-04-15T00:40:36.628Z,0.05
2023-04-15T00:43:04.513Z,0.03
2023-04-15T00:45:32.058Z,0.02
2023-04-15T00:47:59.453Z,0.00
2023-04-15T00:50:26.551Z,-0.02
2023-04-15T00:52:53.533Z,0.00
2023-04-15T00:55:20.595Z,-0.01
2023-04-15T00:57:47.659Z,-0.01
2023-04-15T01:00:14.892Z,-0.03
2023-04-15T01:02:42.361Z,-0.04
2023-04-15T01:05:09.758Z,-0.07
2023-04-15T01:07:36.907Z,-0.09
2023-04-15T01:10:04.899Z,-0.10
2023-04-15T01:12:33.488Z,-0.11
2023-04-15T01:15:01.359Z,-0.15
2023-04-15T01:17:28.503Z,-0.19
2023-04-15T01:19:58.241Z,-0.19
2023-04-15T01:22:26.860Z,-0.25
2023-04-15T01:25:13.593Z,-0.22
2023-04-15T01:27:42.624Z,-0.25
2023-04-15T01:30:10.779Z,-0.27
2023-04-15T01:32:38.334Z,-0.28
2023-04-15T01:35:24.213Z,-0.32
2023-04-15T01:37:51.463Z,-0.35
2023-04-15T01:40:18.495Z,-0.39
2023-04-15T01:42:46.977Z,-0.38
2023-04-15T01:45:15.193Z,-0.41
2023-04-15T01:47:43.850Z,-0.42
2023-04-15T01:50:12.092Z,-0.42
2023-04-15T01:52:40.448Z,-0.42
2023-04-15T01:55:09.807Z,-0.43
2023-04-15T01:57:37.982Z,-0.43
2023-04-15T02:00:08.067Z,-0.41
2023-04-15T02:02:36.344Z,-0.40
2023-04-15T02:05:04.971Z,-0.37
2023-04-15T02:07:33.093Z,-0.37
2023-04-15T02:10:01.535Z,-0.31
2023-04-15T02:12:29.761Z,-0.29
2023-04-15T02:14:58.085Z,-0.25
2023-04-15T02:17:26.876Z,-0.23
2023-04-15T02:19:57.138Z,-0.20
2023-04-15T02:22:25.484Z,-0.14
2023-04-15T02:24:53.937Z,-0.16
2023-04-15T02:27:22.822Z,-0.03
2023-04-15T02:29:53.963Z,0.02
2023-04-15T02:32:24.632Z,0.08
2023-04-15T02:34:53.360Z,0.18
2023-04-15T02:37:21.676Z,0.23
2023-04-15T02:39:50.300Z,0.33
2023-04-15T02:42:18.852Z,0.42
2023-04-15T02:44:47.195Z,0.50
2023-04-15T02:47:16.295Z,0.61
2023-04-15T02:49:44.399Z,0.70
2023-04-15T02:52:12.715Z,0.80
2023-04-15T02:54:40.998Z,0.87
2023-04-15T02:57:09.171Z,0.96
2023-04-15T02:59:37.429Z,1.06
2023-04-15T03:02:07.993Z,1.14
2023-04-15T03:04:36.198Z,1.26
2023-04-15T03:07:04.405Z,1.38
2023-04-15T03:09:33.347Z,1.49
2023-04-15T03:12:01.859Z,1.57
2023-04-15T03:14:30.131Z,1.73
2023-04-15T03:16:59.723Z,1.84
2023-04-15T03:19:28.205Z,1.98
2023-04-15T03:21:56.432Z,2.12
2023-04-15T03:24:25.132Z,2.25
2023-04-15T03:26:53.415Z,2.37
2023-04-15T03:29:21.565Z,2.49
2023-04-15T03:31:49.808Z,2.62
2023-04-15T03:34:18.019Z,2.78
2023-04-15T03:36:47.046Z,2.86
2023-04-15T03:39:15.612Z,3.08
2023-04-15T03:41:43.794Z,3.24
2023-04-15T03:44:12.025Z,3.45
2023-04-15T03:46:40.340Z,3.65
2023-04-15T03:49:09.139Z,3.80
2023-04-15T03:51:37.231Z,4.01
2023-04-15T03:54:05.990Z,4.21
2023-04-15T03:56:34.195Z,4.37
2023-04-15T03:59:02.564Z,4.52
2023-04-15T04:01:31.035Z,4.66
2023-04-15T04:03:59.325Z,4.80
2023-04-15T04:06:27.659Z,4.96
2023-04-15T04:08:57.103Z,5.09
2023-04-15T04:11:25.471Z,5.27
2023-04-15T04:13:53.638Z,5.45
2023-04-15T04:16:21.955Z,5.62
2023-04-15T04:18:50.502Z,5.84
2023-04-15T04:21:18.821Z,6.14
2023-04-15T04:23:47.087Z,6.71
2023-04-15T04:26:15.276Z,7.79
2023-04-15T04:28:43.456Z,10.72
2023-04-15T04:31:12.134Z,15.36
2023-04-15T04:33:40.635Z,19.41
2023-04-15T04:36:08.920Z,22.87
2023-04-15T04:38:37.225Z,25.71
2023-04-15T04:41:05.733Z,28.01
2023-04-15T04:43:33.901Z,29.97
2023-04-15T04:46:02.086Z,31.53
2023-04-15T04:48:30.405Z,32.71
2023-04-15T04:50:58.722Z,33.77
2023-04-15T04:53:28.270Z,34.77
2023-04-15T04:55:56.499Z,35.70
2023-04-15T04:58:24.622Z,36.47
2023-04-15T05:00:53.183Z,37.19
2023-04-15T05:03:22.424Z,37.86
2023-04-15T05:05:50.909Z,38.41
2023-04-15T05:08:19.278Z,38.96
2023-04-15T05:10:47.874Z,39.41
2023-04-15T05:13:16.050Z,39.78
2023-04-15T05:15:45.150Z,40.09
2023-04-15T05:18:13.488Z,40.20
2023-04-15T05:20:42.079Z,40.33
2023-04-15T05:23:10.303Z,40.37
2023-04-15T05:25:38.550Z,40.50
2023-04-15T05:28:06.762Z,40.46
2023-04-15T05:30:35.028Z,40.49
2023-04-15T05:33:04.102Z,40.65
2023-04-15T05:35:32.399Z,41.00
2023-04-15T05:38:00.987Z,41.44
2023-04-15T05:40:29.532Z,41.71
2023-04-15T05:42:57.730Z,41.97
2023-04-15T05:45:26.153Z,42.14
2023-04-15T05:47:54.790Z,42.34
2023-04-15T05:50:23.000Z,42.47
2023-04-15T05:52:51.499Z,42.59
2023-04-15T05:55:19.754Z,42.61
2023-04-15T05:57:48.195Z,42.71
2023-04-15T06:00:18.769Z,42.89
2023-04-15T06:02:47.926Z,43.11
2023-04-15T06:05:16.411Z,43.20
2023-04-15T06:07:45.580Z,43.06
2023-04-15T06:10:15.861Z,43.00
2023-04-15T06:12:44.162Z,43.04
2023-04-15T06:15:12.541Z,43.11
2023-04-15T06:17:40.920Z,43.12
2023-04-15T06:20:09.834Z,42.99
2023-04-15T06:22:39.422Z,42.98
2023-04-15T06:25:11.261Z,43.07
2023-04-15T06:27:39.463Z,43.23
2023-04-15T06:30:10.060Z,43.52
2023-04-15T06:32:38.711Z,43.78
2023-04-15T06:35:07.092Z,43.81
2023-04-15T06:37:35.224Z,43.70
2023-04-15T06:40:05.475Z,43.74
2023-04-15T06:42:34.293Z,43.85
2023-04-15T06:45:02.794Z,44.11
2023-04-15T06:47:31.175Z,44.20
2023-04-15T06:49:59.423Z,44.23
2023-04-15T06:52:27.585Z,44.28
2023-04-15T06:54:56.402Z,44.41
2023-04-15T06:57:24.672Z,44.54
2023-04-15T06:59:54.752Z,44.63
2023-04-15T07:02:23.533Z,44.71
2023-04-15T07:04:51.742Z,44.79
2023-04-15T07:07:19.976Z,44.73
2023-04-15T07:09:48.549Z,44.96
2023-04-15T07:12:16.692Z,44.96
2023-04-15T07:14:44.964Z,45.11
2023-04-15T07:17:13.738Z,45.36
2023-04-15T07:19:42.285Z,45.62
2023-04-15T07:22:10.553Z,45.94
2023-04-15T07:24:38.831Z,46.19
2023-04-15T07:27:07.049Z,46.37
2023-04-15T07:29:35.286Z,46.57
2023-04-15T07:32:04.187Z,46.71
2023-04-15T07:34:32.879Z,46.70
2023-04-15T07:37:01.589Z,46.78
2023-04-15T07:39:30.177Z,46.98
2023-04-15T07:41:59.235Z,47.08
2023-04-15T07:44:27.842Z,46.92
2023-04-15T07:46:56.769Z,47.07
2023-04-15T07:49:24.975Z,47.24
2023-04-15T07:51:53.909Z,47.20
2023-04-15T07:54:22.300Z,47.27
2023-04-15T07:56:50.700Z,47.25
2023-04-15T07:59:18.789Z,47.41
2023-04-15T08:01:46.927Z,47.52
2023-04-15T08:04:15.317Z,47.40
2023-04-15T08:06:51.086Z,47.30
2023-04-15T08:09:20.695Z,47.38
2023-04-15T08:11:51.107Z,47.44
2023-04-15T08:14:19.456Z,47.67
2023-04-15T08:16:48.601Z,47.89
2023-04-15T08:19:17.594Z,47.84
2023-04-15T08:21:45.839Z,47.52
2023-04-15T08:24:14.633Z,47.59
2023-04-15T08:26:42.945Z,47.68
2023-04-15T08:29:11.143Z,47.82
2023-04-15T08:31:39.378Z,48.23
2023-04-15T08:34:07.826Z,48.63
2023-04-15T08:36:36.331Z,48.79
2023-04-15T08:39:05.095Z,48.62
2023-04-15T08:41:36.024Z,48.23
2023-04-15T08:44:05.936Z,48.05
2023-04-15T08:46:37.896Z,47.89
2023-04-15T08:49:08.699Z,48.03
2023-04-15T08:51:37.019Z,48.41
2023-04-15T08:54:05.512Z,48.68
2023-04-15T08:56:33.863Z,48.87
2023-04-15T08:59:02.637Z,49.19
2023-04-15T09:01:32.703Z,49.25
2023-04-15T09:04:03.916Z,49.17
2023-04-15T09:06:32.152Z,49.08
2023-04-15T09:09:01.368Z,48.80
2023-04-15T09:11:31.594Z,48.48
2023-04-15T09:13:59.853Z,48.37
2023-04-15T09:16:28.629Z,48.15
2023-04-15T09:18:56.981Z,47.79
2023-04-15T09:21:25.192Z,47.87
2023-04-15T09:23:58.387Z,47.97
2023-04-15T09:26:36.749Z,48.03
2023-04-15T09:29:14.534Z,48.23
2023-04-15T09:31:49.061Z,48.36
2023-04-15T09:34:27.268Z,48.23
2023-04-15T09:36:57.237Z,48.20
2023-04-15T09:39:25.668Z,48.19
2023-04-15T09:42:07.345Z,48.18
2023-04-15T09:44:36.007Z,48.26
2023-04-15T09:47:04.386Z,48.01
2023-04-15T09:49:33.135Z,47.91
2023-04-15T09:52:06.185Z,47.81
2023-04-15T09:54:36.757Z,48.10
2023-04-15T09:57:10.548Z,48.25
2023-04-15T09:59:38.873Z,48.48
2023-04-15T10:02:07.871Z,48.64
2023-04-15T10:04:40.094Z,48.61
2023-04-15T10:07:12.942Z,48.54
2023-04-15T10:09:41.545Z,48.56
2023-04-15T10:12:10.201Z,48.59
2023-04-15T10:14:39.121Z,48.49
2023-04-15T10:17:10.642Z,48.50
2023-04-15T10:19:38.874Z,48.42
2023-04-15T10:22:07.660Z,48.32
2023-04-15T10:24:36.603Z,48.00
2023-04-15T10:27:06.641Z,47.85
2023-04-15T10:29:35.441Z,47.34
2023-04-15T10:32:04.787Z,47.10
2023-04-15T10:34:33.454Z,46.84
2023-04-15T10:37:03.893Z,46.45
2023-04-15T10:39:35.118Z,46.31
2023-04-15T10:42:11.745Z,46.42
2023-04-15T10:44:43.458Z,46.45
2023-04-15T10:47:14.319Z,46.38
2023-04-15T10:49:52.794Z,46.25
2023-04-15T10:52:27.753Z,46.25
2023-04-15T10:55:11.297Z,46.23
2023-04-15T10:57:41.402Z,46.17
2023-04-15T11:00:09.569Z,46.05
2023-04-15T11:02:48.045Z,45.78
2023-04-15T11:05:18.494Z,45.71
2023-04-15T11:07:49.492Z,45.65
2023-04-15T11:10:26.687Z,45.53
2023-04-15T11:12:58.598Z,45.45
2023-04-15T11:15:34.285Z,45.29
2023-04-15T11:18:23.627Z,45.25
2023-04-15T11:20:57.819Z,45.29
2023-04-15T11:23:30.891Z,45.16
2023-04-15T11:26:00.534Z,44.88
2023-04-15T11:28:30.797Z,44.58
2023-04-15T11:31:06.362Z,44.06
2023-04-15T11:33:34.855Z,43.56
2023-04-15T11:36:04.499Z,43.20
2023-04-15T11:38:34.865Z,42.88
2023-04-15T11:41:03.244Z,42.73
2023-04-15T11:43:32.794Z,42.16
2023-04-15T11:46:02.790Z,40.46
2023-04-15T11:48:36.604Z,38.03
2023-04-15T11:51:07.098Z,35.59
2023-04-15T11:53:42.290Z,33.39
2023-04-15T11:56:11.341Z,31.37
2023-04-15T11:58:39.440Z,29.59
2023-04-15T12:01:07.570Z,28.01
2023-04-15T12:03:47.228Z,26.48
2023-04-15T12:06:19.724Z,25.17
2023-04-15T12:08:55.544Z,24.07
2023-04-15T12:11:31.534Z,23.13
2023-04-15T12:14:04.287Z,22.24
2023-04-15T12:16:31.902Z,21.57
2023-04-15T12:19:00.727Z,20.93
2023-04-15T12:21:34.813Z,20.42
2023-04-15T12:24:06.714Z,19.96
2023-04-15T12:26:57.325Z,19.47
2023-04-15T12:29:29.310Z,19.12
2023-04-15T12:32:07.488Z,18.77
2023-04-15T12:34:39.545Z,18.50
2023-04-15T12:37:11.738Z,18.27
2023-04-15T12:39:40.880Z,17.97
2023-04-15T12:42:09.263Z,17.69
2023-04-15T12:44:37.570Z,17.41
2023-04-15T12:47:05.641Z,17.15
2023-04-15T12:49:33.010Z,16.92
2023-04-15T12:52:03.563Z,16.72
2023-04-15T12:54:31.918Z,16.54
2023-04-15T12:56:59.685Z,16.37
2023-04-15T12:59:27.134Z,16.29
2023-04-15T13:01:54.812Z,16.19
2023-04-15T13:04:22.494Z,16.08
2023-04-15T13:06:50.184Z,15.97
2023-04-15T13:09:17.409Z,15.85
2023-04-15T13:11:44.560Z,15.71
2023-04-15T13:14:13.244Z,15.60
2023-04-15T13:16:41.051Z,15.48
2023-04-15T13:19:08.181Z,15.38
2023-04-15T13:21:36.341Z,15.22
2023-04-15T13:24:04.947Z,15.11
2023-04-15T13:26:32.307Z,15.03
2023-04-15T13:28:59.863Z,14.97
2023-04-15T13:31:27.370Z,14.91
2023-04-15T13:33:54.509Z,14.85
2023-04-15T13:36:21.754Z,14.77
2023-04-15T13:38:51.132Z,14.70
2023-04-15T13:41:18.804Z,14.60
2023-04-15T13:43:45.900Z,14.55
2023-04-15T13:46:13.094Z,14.51
2023-04-15T13:48:40.408Z,14.44
2023-04-15T13:51:07.492Z,14.40
2023-04-15T13:53:38.844Z,14.35
2023-04-15T13:56:08.480Z,14.27
2023-04-15T13:58:37.242Z,14.20
2023-04-15T14:01:06.079Z,14.15
2023-04-15T14:03:36.179Z,14.07
2023-04-15T14:06:03.789Z,14.02
2023-04-15T14:08:31.548Z,13.96
2023-04-15T14:10:58.938Z,13.87
2023-04-15T14:13:26.077Z,13.79
2023-04-15T14:15:53.342Z,13.70
2023-04-15T14:18:20.588Z,13.67
2023-04-15T14:20:47.587Z,13.62
2023-04-15T14:23:14.681Z,13.56
2023-04-15T14:25:41.889Z,13.51
2023-04-15T14:28:09.375Z,13.46
2023-04-15T14:30:36.585Z,13.42
2023-04-15T14:33:04.376Z,13.33
2023-04-15T14:35:31.677Z,13.31
2023-04-15T14:37:58.814Z,13.19
2023-04-15T14:40:26.097Z,13.17
2023-04-15T14:42:53.169Z,13.09
2023-04-15T14:45:20.392Z,12.99
2023-04-15T14:47:47.882Z,12.95
2023-04-15T14:50:15.051Z,12.92
2023-04-15T14:52:42.226Z,12.85
2023-04-15T14:55:11.401Z,12.80
2023-04-15T14:57:39.432Z,12.74
2023-04-15T15:00:07.649Z,12.66
2023-04-15T15:02:39.733Z,12.58
2023-04-15T15:05:09.065Z,12.49
2023-04-15T15:07:39.664Z,12.41
2023-04-15T15:10:07.323Z,12.34
2023-04-15T15:12:34.615Z,12.27
2023-04-15T15:15:12.199Z,12.20
2023-04-15T15:17:43.422Z,12.12
2023-04-15T15:20:10.980Z,12.03
2023-04-15T15:22:38.202Z,11.94
2023-04-15T15:25:05.901Z,11.87
2023-04-15T15:27:33.407Z,11.79
2023-04-15T15:30:09.824Z,11.70
2023-04-15T15:32:38.873Z,11.61
2023-04-15T15:35:06.699Z,11.47
2023-04-15T15:37:33.991Z,11.40
2023-04-15T15:40:01.202Z,11.29
2023-04-15T15:42:31.937Z,11.20
2023-04-15T15:44:59.350Z,11.12
2023-04-15T15:47:28.185Z,11.03
2023-04-15T15:49:55.386Z,10.92
2023-04-15T15:52:22.389Z,10.83
2023-04-15T15:54:49.481Z,10.70
2023-04-15T15:57:16.596Z,10.58
2023-04-15T15:59:43.918Z,10.43
2023-04-15T16:02:12.252Z,10.38
2023-04-15T16:04:39.797Z,10.25
2023-04-15T16:07:07.240Z,10.14
2023-04-15T16:09:34.783Z,10.02
2023-04-15T16:12:02.325Z,9.92
2023-04-15T16:14:29.440Z,9.82
2023-04-15T16:16:56.737Z,9.71
2023-04-15T16:19:23.903Z,9.59
2023-04-15T16:21:51.490Z,9.49
2023-04-15T16:24:18.726Z,9.40
2023-04-15T16:26:45.838Z,9.30
2023-04-15T16:29:12.833Z,9.23
2023-04-15T16:31:41.825Z,9.12
2023-04-15T16:34:09.118Z,9.01
2023-04-15T16:36:36.445Z,8.94
2023-04-15T16:39:04.420Z,8.85
2023-04-15T16:41:33.911Z,8.72
2023-04-15T16:44:02.137Z,8.67
2023-04-15T16:46:30.007Z,8.59
2023-04-15T16:48:57.088Z,8.50
2023-04-15T16:51:24.155Z,8.43
2023-04-15T16:53:51.276Z,8.33
2023-04-15T16:56:18.505Z,8.25
2023-04-15T16:58:45.706Z,8.20
2023-04-15T17:01:12.863Z,8.13
2023-04-15T17:03:40.292Z,8.07
2023-04-15T17:06:07.536Z,8.00
2023-04-15T17:08:34.949Z,7.93
2023-04-15T17:11:02.006Z,7.85
2023-04-15T17:13:29.080Z,7.81
2023-04-15T17:15:56.678Z,7.70
2023-04-15T17:18:36.129Z,7.70
2023-04-15T17:21:18.929Z,7.62
2023-04-15T17:23:52.442Z,7.56
2023-04-15T17:26:21.224Z,7.50
2023-04-15T17:28:53.936Z,7.41
2023-04-15T17:31:32.245Z,7.36
2023-04-15T17:34:19.322Z,7.30
2023-04-15T17:37:06.649Z,7.22
2023-04-15T17:39:53.630Z,7.12
2023-04-15T17:42:21.800Z,7.06
2023-04-15T17:45:09.488Z,7.00
2023-04-15T17:47:56.580Z,6.95
2023-04-15T17:50:43.600Z,6.88
2023-04-15T17:53:30.654Z,6.83
2023-04-15T17:56:17.632Z,6.79
2023-04-15T17:59:04.703Z,6.75
2023-04-15T18:01:51.797Z,6.69
2023-04-15T18:04:39.342Z,6.61
2023-04-15T18:07:26.609Z,6.55
2023-04-15T18:10:13.578Z,6.48
2023-04-15T18:13:00.676Z,6.41
2023-04-15T18:15:48.983Z,6.40
2023-04-15T18:18:36.054Z,6.36
2023-04-15T18:21:03.050Z,6.32
2023-04-15T18:23:30.120Z,6.26
2023-04-15T18:25:58.304Z,6.25
2023-04-15T18:28:25.823Z,6.22
2023-04-15T18:30:53.556Z,6.18
2023-04-15T18:33:21.096Z,6.12
2023-04-15T18:35:50.005Z,6.06
2023-04-15T18:38:17.456Z,5.98
2023-04-15T18:40:44.640Z,5.95
2023-04-15T18:43:11.935Z,5.88
2023-04-15T18:45:39.141Z,5.81
2023-04-15T18:48:06.413Z,5.78
2023-04-15T18:50:33.525Z,5.74
2023-04-15T18:53:00.621Z,5.70
2023-04-15T18:55:27.759Z,5.66
2023-04-15T18:57:56.739Z,5.61
2023-04-15T19:00:41.968Z,5.57
2023-04-15T19:03:09.294Z,5.50
2023-04-15T19:05:37.164Z,5.44
2023-04-15T19:08:04.153Z,5.37
2023-04-15T19:10:31.480Z,5.33
2023-04-15T19:12:58.592Z,5.28
2023-04-15T19:15:25.685Z,5.23
2023-04-15T19:17:52.846Z,5.19
2023-04-15T19:20:19.997Z,5.13
2023-04-15T19:22:47.433Z,5.08
2023-04-15T19:25:14.699Z,5.01
2023-04-15T19:27:41.812Z,4.99
2023-04-15T19:30:09.126Z,4.95
2023-04-15T19:32:36.876Z,4.91
2023-04-15T19:35:05.023Z,4.84
2023-04-15T19:37:32.804Z,4.79
2023-04-15T19:40:00.248Z,4.75
2023-04-15T19:42:28.879Z,4.70
2023-04-15T19:44:56.810Z,4.67
2023-04-15T19:47:24.654Z,4.64
2023-04-15T19:49:52.834Z,4.62
2023-04-15T19:52:19.890Z,4.58
2023-04-15T19:54:47.079Z,4.59
2023-04-15T19:57:14.263Z,4.59
2023-04-15T19:59:41.448Z,4.56
2023-04-15T20:02:08.806Z,4.55
2023-04-15T20:04:36.153Z,4.54
2023-04-15T20:07:03.334Z,4.53
2023-04-15T20:09:30.435Z,4.49
2023-04-15T20:12:46.927Z,4.46
2023-04-15T20:14:44.790Z,4.38
2023-04-15T20:17:11.782Z,4.36
2023-04-15T20:19:39.259Z,4.30
2023-04-15T20:22:06.370Z,4.24
2023-04-15T20:24:33.456Z,4.18
2023-04-15T20:27:00.872Z,4.12
2023-04-15T20:29:28.085Z,4.07
2023-04-15T20:31:56.417Z,3.99
2023-04-15T20:34:23.465Z,3.96
2023-04-15T20:36:50.902Z,3.90
2023-04-15T20:39:17.937Z,3.84
2023-04-15T20:41:45.048Z,3.77
2023-04-15T20:44:12.186Z,3.73
2023-04-15T20:46:39.309Z,3.70
2023-04-15T20:49:06.605Z,3.65
2023-04-15T20:51:37.877Z,3.60
2023-04-15T20:54:05.280Z,3.57
2023-04-15T20:56:32.652Z,3.53
2023-04-15T20:59:01.290Z,3.48
2023-04-15T21:01:28.474Z,3.46
2023-04-15T21:03:55.679Z,3.40
2023-04-15T21:06:22.798Z,3.40
2023-04-15T21:08:49.950Z,3.37
2023-04-15T21:11:36.521Z,3.35
2023-04-15T21:14:07.577Z,3.32
2023-04-15T21:16:34.882Z,3.31
2023-04-15T21:19:02.021Z,3.28
2023-04-15T21:21:29.137Z,3.27
2023-04-15T21:23:56.095Z,3.22
2023-04-15T21:26:23.151Z,3.20
2023-04-15T21:28:50.254Z,3.16
2023-04-15T21:31:17.336Z,3.09
2023-04-15T21:33:44.326Z,3.08
2023-04-15T21:36:11.411Z,3.03
2023-04-15T21:38:38.440Z,2.97
2023-04-15T21:41:09.767Z,2.95
2023-04-15T21:43:37.204Z,2.92
2023-04-15T21:46:23.612Z,2.87
2023-04-15T21:48:52.794Z,2.83
2023-04-15T21:51:20.005Z,2.80
2023-04-15T21:53:47.509Z,2.73
2023-04-15T21:56:14.692Z,2.72
2023-04-15T21:58:41.698Z,2.68
2023-04-15T22:01:08.813Z,2.60
2023-04-15T22:03:36.087Z,2.57
2023-04-15T22:06:04.106Z,2.54
2023-04-15T22:08:41.613Z,2.52
2023-04-15T22:11:29.774Z,2.50
2023-04-15T22:13:58.050Z,2.47
2023-04-15T22:16:26.672Z,2.45
2023-04-15T22:18:55.295Z,2.44
2023-04-15T22:21:22.735Z,2.41
2023-04-15T22:23:50.017Z,2.38
2023-04-15T22:26:17.291Z,2.37
2023-04-15T22:28:44.303Z,2.32
2023-04-15T22:31:11.632Z,2.34
2023-04-15T22:33:39.220Z,2.29
2023-04-15T22:36:06.520Z,2.31
2023-04-15T22:38:33.634Z,2.29
2023-04-15T22:41:00.690Z,2.24
2023-04-15T22:43:27.968Z,2.24
2023-04-15T22:45:55.474Z,2.24
2023-04-15T22:48:23.357Z,2.21
2023-04-15T22:50:50.521Z,2.19
2023-04-15T22:53:18.157Z,2.19
2023-04-15T22:55:48.618Z,2.17
2023-04-15T22:58:17.253Z,2.15
2023-04-15T23:00:44.874Z,2.14
2023-04-15T23:03:12.248Z,2.16
2023-04-15T23:05:41.452Z,2.15
2023-04-15T23:08:08.794Z,2.09
2023-04-15T23:10:36.046Z,2.13
2023-04-15T23:13:03.138Z,2.11
2023-04-15T23:15:30.299Z,2.10
2023-04-15T23:17:57.568Z,2.08
2023-04-15T23:20:24.607Z,2.07
2023-04-15T23:22:51.632Z,2.03
2023-04-15T23:25:22.415Z,2.00
2023-04-15T23:27:49.452Z,2.00
2023-04-15T23:30:16.488Z,2.00
2023-04-15T23:32:43.741Z,1.97
2023-04-15T23:35:10.987Z,1.91
2023-04-15T23:37:37.969Z,1.90
2023-04-15T23:40:05.608Z,1.85
2023-04-15T23:42:32.703Z,1.78
2023-04-15T23:44:59.775Z,1.80
2023-04-15T23:47:26.900Z,1.75
2023-04-15T23:49:54.122Z,1.73
2023-04-15T23:52:21.259Z,1.71
2023-04-15T23:54:48.471Z,1.66
2023-04-15T23:57:15.634Z,1.64
2023-04-15T23:59:42.671Z,1.65
